Startpagina
METAR-TAF:

METAR-TAF

Vliegvelden :

Banská Bystrica, Slowakije

breedte: 48-38-17N, lengte: 019-08-03E, hoogte: 318 m

Actueel weer

Dit bericht is 32 minuten geleden gemaakt, om 23:30 UTC
Wind 1 kt uit variabele richting
Temperatuur 11°C
Vochtigheid 82%
Druk 1015 hPa
Zicht 10 km of meer
Weinig wolken op 5400 ft

METAR: LZSL 312330Z VRB01KT 9999 FEW054 11/08 Q1015

Tijdstip: 02:02 (00:02 UTC)

Verwachting

Dit bericht is 1 uur en het 2 minuten geleden gemaakt, om 23:00 UTC
Verwachting geldig van 01 om 00 UTC tot 01 om 09 UTC
Wind 7 kt uit het noorden
Zicht 10 km of meer
geen wolken onder 1500 m en geen cumulonimbus
Kans 40% :
Tijdelijke
van 01 om 00 UTC tot 01 om 06 UTC
Wind 2 kt uit variabele richting
Zicht: 4000 m
Gebroken wolken op 300 ft
nevel
Wijzigt naar
van 01 om 08 UTC tot 01 om 09 UTC
Zicht 10 km of meer
Gebroken wolken op 5500 ft

TAF: LZSL 312300Z 0100/0109 36007KT CAVOK PROB40 TEMPO 0100/0106 VRB02KT 4000 BR BKN003 BECMG 0108/0109 9999 BKN055

Waarnemingen en weersverwachtingen van meer dan 4000 vliegvelden (METAR en TAF).

De beschikbare stations zijn de gele en rode punten op de kaart.

Ga met uw muis naar het station om de naam te zien.

Klik dan om waarnemingen en weersverwachtingen te zien.

kaart wijzigen: klik op de groene knoppen met een zwart kruis om in te zoomen, op de groene knop met een streepje om uit te zoomen of op de groene pijlen voor aangrenzende kaarten.


METAR-TAF: